sensor_id;sensor_type;location;lat;lon;timestamp;temperature;humidity
44435;DHT22;30138;20.964;105.830;2023-12-20T00:00:24;17.40;90.40
44435;DHT22;30138;20.964;105.830;2023-12-20T00:05:29;17.40;90.20
44435;DHT22;30138;20.964;105.830;2023-12-20T00:10:36;17.40;90.30
44435;DHT22;30138;20.964;105.830;2023-12-20T00:15:44;17.40;90.30
44435;DHT22;30138;20.964;105.830;2023-12-20T00:20:51;17.40;90.00
44435;DHT22;30138;20.964;105.830;2023-12-20T00:25:56;17.40;90.00
44435;DHT22;30138;20.964;105.830;2023-12-20T00:31:04;17.30;90.00
44435;DHT22;30138;20.964;105.830;2023-12-20T00:36:10;17.30;89.80
44435;DHT22;30138;20.964;105.830;2023-12-20T00:41:17;17.30;89.90
44435;DHT22;30138;20.964;105.830;2023-12-20T00:46:25;17.30;89.70
44435;DHT22;30138;20.964;105.830;2023-12-20T00:51:32;17.30;89.50
44435;DHT22;30138;20.964;105.830;2023-12-20T00:56:39;17.30;89.40
44435;DHT22;30138;20.964;105.830;2023-12-20T01:01:47;17.30;89.30
44435;DHT22;30138;20.964;105.830;2023-12-20T01:06:54;17.30;89.30
44435;DHT22;30138;20.964;105.830;2023-12-20T01:12:00;17.30;88.90
44435;DHT22;30138;20.964;105.830;2023-12-20T01:17:09;17.30;88.80
44435;DHT22;30138;20.964;105.830;2023-12-20T01:22:15;17.30;88.70
44435;DHT22;30138;20.964;105.830;2023-12-20T01:27:22;17.30;88.60
44435;DHT22;30138;20.964;105.830;2023-12-20T01:32:31;17.30;88.50
44435;DHT22;30138;20.964;105.830;2023-12-20T01:37:37;17.30;88.30
44435;DHT22;30138;20.964;105.830;2023-12-20T01:42:43;17.30;88.20
44435;DHT22;30138;20.964;105.830;2023-12-20T01:47:53;17.20;88.00
44435;DHT22;30138;20.964;105.830;2023-12-20T01:53:01;17.20;88.00
44435;DHT22;30138;20.964;105.830;2023-12-20T01:58:07;17.20;87.90
44435;DHT22;30138;20.964;105.830;2023-12-20T02:03:17;17.20;87.50
44435;DHT22;30138;20.964;105.830;2023-12-20T02:08:23;17.20;87.40
44435;DHT22;30138;20.964;105.830;2023-12-20T02:13:31;17.30;87.50
44435;DHT22;30138;20.964;105.830;2023-12-20T02:18:40;17.30;87.40
44435;DHT22;30138;20.964;105.830;2023-12-20T02:23:50;17.30;87.60
44435;DHT22;30138;20.964;105.830;2023-12-20T02:28:57;17.20;87.40
44435;DHT22;30138;20.964;105.830;2023-12-20T02:34:03;17.20;87.40
44435;DHT22;30138;20.964;105.830;2023-12-20T02:39:12;17.30;87.60
44435;DHT22;30138;20.964;105.830;2023-12-20T02:44:19;17.30;87.40
44435;DHT22;30138;20.964;105.830;2023-12-20T02:49:26;17.30;87.20
44435;DHT22;30138;20.964;105.830;2023-12-20T02:54:35;17.30;87.20
44435;DHT22;30138;20.964;105.830;2023-12-20T02:59:41;17.30;87.30
44435;DHT22;30138;20.964;105.830;2023-12-20T03:04:47;17.30;87.10
44435;DHT22;30138;20.964;105.830;2023-12-20T03:09:56;17.40;87.00
44435;DHT22;30138;20.964;105.830;2023-12-20T03:15:03;17.40;87.80
44435;DHT22;30138;20.964;105.830;2023-12-20T03:20:10;17.40;87.00
44435;DHT22;30138;20.964;105.830;2023-12-20T03:25:17;17.40;86.90
44435;DHT22;30138;20.964;105.830;2023-12-20T03:30:25;17.40;86.90
44435;DHT22;30138;20.964;105.830;2023-12-20T03:35:31;17.40;86.70
44435;DHT22;30138;20.964;105.830;2023-12-20T03:40:39;17.40;86.80
44435;DHT22;30138;20.964;105.830;2023-12-20T03:45:47;17.40;86.80
44435;DHT22;30138;20.964;105.830;2023-12-20T03:50:53;17.40;86.70
44435;DHT22;30138;20.964;105.830;2023-12-20T03:56:01;17.40;86.90
44435;DHT22;30138;20.964;105.830;2023-12-20T04:01:11;17.40;86.90
44435;DHT22;30138;20.964;105.830;2023-12-20T04:06:18;17.40;87.10
44435;DHT22;30138;20.964;105.830;2023-12-20T04:11:26;17.50;87.00
44435;DHT22;30138;20.964;105.830;2023-12-20T04:16:33;17.50;86.60
44435;DHT22;30138;20.964;105.830;2023-12-20T04:21:39;17.60;86.60
44435;DHT22;30138;20.964;105.830;2023-12-20T04:26:49;17.60;87.30
44435;DHT22;30138;20.964;105.830;2023-12-20T04:31:55;17.60;87.40
44435;DHT22;30138;20.964;105.830;2023-12-20T04:37:03;17.70;87.60
44435;DHT22;30138;20.964;105.830;2023-12-20T04:42:11;17.70;87.60
44435;DHT22;30138;20.964;105.830;2023-12-20T04:47:17;17.70;86.50
44435;DHT22;30138;20.964;105.830;2023-12-20T04:52:24;17.70;87.00
44435;DHT22;30138;20.964;105.830;2023-12-20T04:57:32;17.70;87.60
44435;DHT22;30138;20.964;105.830;2023-12-20T05:02:38;17.70;87.60
44435;DHT22;30138;20.964;105.830;2023-12-20T05:07:44;17.80;87.80
44435;DHT22;30138;20.964;105.830;2023-12-20T05:12:52;17.80;88.00
44435;DHT22;30138;20.964;105.830;2023-12-20T05:17:59;17.80;88.30
44435;DHT22;30138;20.964;105.830;2023-12-20T05:23:05;17.80;88.50
44435;DHT22;30138;20.964;105.830;2023-12-20T05:28:14;17.90;88.70
44435;DHT22;30138;20.964;105.830;2023-12-20T05:33:20;17.90;88.80
44435;DHT22;30138;20.964;105.830;2023-12-20T05:38:27;17.90;89.00
44435;DHT22;30138;20.964;105.830;2023-12-20T05:43:35;18.00;89.10
44435;DHT22;30138;20.964;105.830;2023-12-20T05:48:42;18.00;89.10
44435;DHT22;30138;20.964;105.830;2023-12-20T05:53:48;18.00;89.00
44435;DHT22;30138;20.964;105.830;2023-12-20T05:58:56;18.10;88.90
44435;DHT22;30138;20.964;105.830;2023-12-20T06:04:04;18.10;88.60
44435;DHT22;30138;20.964;105.830;2023-12-20T06:09:11;18.10;88.80
44435;DHT22;30138;20.964;105.830;2023-12-20T06:14:19;18.10;89.50
44435;DHT22;30138;20.964;105.830;2023-12-20T06:19:26;18.10;89.70
44435;DHT22;30138;20.964;105.830;2023-12-20T06:24:32;18.10;90.00
44435;DHT22;30138;20.964;105.830;2023-12-20T06:29:41;18.10;90.00
44435;DHT22;30138;20.964;105.830;2023-12-20T06:34:47;18.10;90.00
44435;DHT22;30138;20.964;105.830;2023-12-20T06:39:54;18.10;89.90
44435;DHT22;30138;20.964;105.830;2023-12-20T06:45:03;18.10;90.10
44435;DHT22;30138;20.964;105.830;2023-12-20T06:50:10;18.10;90.10
44435;DHT22;30138;20.964;105.830;2023-12-20T06:55:17;18.10;90.10
44435;DHT22;30138;20.964;105.830;2023-12-20T07:00:26;18.10;90.20
44435;DHT22;30138;20.964;105.830;2023-12-20T07:05:33;18.10;90.20
44435;DHT22;30138;20.964;105.830;2023-12-20T07:10:39;18.10;90.20
44435;DHT22;30138;20.964;105.830;2023-12-20T07:15:48;18.10;90.20
44435;DHT22;30138;20.964;105.830;2023-12-20T07:20:54;18.20;90.20
44435;DHT22;30138;20.964;105.830;2023-12-20T07:26:01;18.10;90.20
44435;DHT22;30138;20.964;105.830;2023-12-20T07:31:09;18.20;90.30
44435;DHT22;30138;20.964;105.830;2023-12-20T07:36:16;18.20;90.20
44435;DHT22;30138;20.964;105.830;2023-12-20T07:41:25;18.20;90.30
44435;DHT22;30138;20.964;105.830;2023-12-20T07:46:33;18.20;90.20
44435;DHT22;30138;20.964;105.830;2023-12-20T07:51:39;18.20;90.10
44435;DHT22;30138;20.964;105.830;2023-12-20T07:56:45;18.20;90.10
44435;DHT22;30138;20.964;105.830;2023-12-20T08:01:54;18.20;90.10
44435;DHT22;30138;20.964;105.830;2023-12-20T08:07:00;18.20;90.10
44435;DHT22;30138;20.964;105.830;2023-12-20T08:12:07;18.20;90.10
44435;DHT22;30138;20.964;105.830;2023-12-20T08:17:15;18.30;90.20
44435;DHT22;30138;20.964;105.830;2023-12-20T08:22:22;18.30;90.20
44435;DHT22;30138;20.964;105.830;2023-12-20T08:27:29;18.30;90.20
44435;DHT22;30138;20.964;105.830;2023-12-20T08:32:39;18.30;90.20
44435;DHT22;30138;20.964;105.830;2023-12-20T08:37:46;18.30;90.20
44435;DHT22;30138;20.964;105.830;2023-12-20T08:42:52;18.30;90.30
44435;DHT22;30138;20.964;105.830;2023-12-20T08:48:01;18.30;90.30
44435;DHT22;30138;20.964;105.830;2023-12-20T08:53:08;18.30;90.20
44435;DHT22;30138;20.964;105.830;2023-12-20T08:58:14;18.30;90.20
44435;DHT22;30138;20.964;105.830;2023-12-20T09:03:22;18.30;90.20
44435;DHT22;30138;20.964;105.830;2023-12-20T09:08:29;18.30;90.30
44435;DHT22;30138;20.964;105.830;2023-12-20T09:13:36;18.30;90.30
44435;DHT22;30138;20.964;105.830;2023-12-20T09:18:44;18.30;90.30
44435;DHT22;30138;20.964;105.830;2023-12-20T09:23:51;18.30;90.40
44435;DHT22;30138;20.964;105.830;2023-12-20T09:28:57;18.30;90.40
44435;DHT22;30138;20.964;105.830;2023-12-20T09:34:05;18.30;90.40
44435;DHT22;30138;20.964;105.830;2023-12-20T09:39:11;18.30;90.40
44435;DHT22;30138;20.964;105.830;2023-12-20T09:44:18;18.30;90.40
44435;DHT22;30138;20.964;105.830;2023-12-20T09:49:27;18.30;90.30
44435;DHT22;30138;20.964;105.830;2023-12-20T09:54:33;18.30;90.40
44435;DHT22;30138;20.964;105.830;2023-12-20T09:59:39;18.30;90.30
44435;DHT22;30138;20.964;105.830;2023-12-20T10:04:48;18.30;90.40
44435;DHT22;30138;20.964;105.830;2023-12-20T10:09:55;18.30;90.40
44435;DHT22;30138;20.964;105.830;2023-12-20T10:15:01;18.30;90.50
44435;DHT22;30138;20.964;105.830;2023-12-20T10:20:10;18.30;90.30
44435;DHT22;30138;20.964;105.830;2023-12-20T10:25:16;18.30;90.40
44435;DHT22;30138;20.964;105.830;2023-12-20T10:30:22;18.30;90.30
44435;DHT22;30138;20.964;105.830;2023-12-20T10:35:30;18.30;90.30
44435;DHT22;30138;20.964;105.830;2023-12-20T10:40:37;18.30;90.20
44435;DHT22;30138;20.964;105.830;2023-12-20T10:45:43;18.30;90.30
44435;DHT22;30138;20.964;105.830;2023-12-20T10:50:57;18.30;90.20
44435;DHT22;30138;20.964;105.830;2023-12-20T10:56:04;18.30;90.20
44435;DHT22;30138;20.964;105.830;2023-12-20T11:01:13;18.30;90.20
44435;DHT22;30138;20.964;105.830;2023-12-20T11:06:40;18.30;90.30
44435;DHT22;30138;20.964;105.830;2023-12-20T11:12:04;18.30;90.20
44435;DHT22;30138;20.964;105.830;2023-12-20T11:17:14;18.30;90.20
44435;DHT22;30138;20.964;105.830;2023-12-20T11:22:23;18.30;90.20
44435;DHT22;30138;20.964;105.830;2023-12-20T11:27:31;18.30;90.20
44435;DHT22;30138;20.964;105.830;2023-12-20T11:32:38;18.30;90.20
44435;DHT22;30138;20.964;105.830;2023-12-20T11:37:47;18.30;90.20
44435;DHT22;30138;20.964;105.830;2023-12-20T11:42:53;18.30;90.20
44435;DHT22;30138;20.964;105.830;2023-12-20T11:48:00;18.30;90.20
44435;DHT22;30138;20.964;105.830;2023-12-20T11:53:09;18.30;90.20
44435;DHT22;30138;20.964;105.830;2023-12-20T11:58:17;18.30;90.20
44435;DHT22;30138;20.964;105.830;2023-12-20T12:03:23;18.30;90.30
44435;DHT22;30138;20.964;105.830;2023-12-20T12:08:31;18.30;90.30
44435;DHT22;30138;20.964;105.830;2023-12-20T12:13:38;18.40;90.60
44435;DHT22;30138;20.964;105.830;2023-12-20T12:18:44;18.30;90.20
44435;DHT22;30138;20.964;105.830;2023-12-20T12:23:51;18.40;90.30
44435;DHT22;30138;20.964;105.830;2023-12-20T12:28:57;18.40;90.20
44435;DHT22;30138;20.964;105.830;2023-12-20T12:34:03;18.30;90.20
44435;DHT22;30138;20.964;105.830;2023-12-20T12:39:15;18.40;90.20
44435;DHT22;30138;20.964;105.830;2023-12-20T12:44:21;18.40;90.10
44435;DHT22;30138;20.964;105.830;2023-12-20T12:49:29;18.40;90.10
44435;DHT22;30138;20.964;105.830;2023-12-20T12:54:37;18.40;90.10
44435;DHT22;30138;20.964;105.830;2023-12-20T12:59:43;18.30;90.00
44435;DHT22;30138;20.964;105.830;2023-12-20T13:04:49;18.40;90.00
44435;DHT22;30138;20.964;105.830;2023-12-20T13:09:56;18.40;90.00
44435;DHT22;30138;20.964;105.830;2023-12-20T13:15:03;18.40;90.00
44435;DHT22;30138;20.964;105.830;2023-12-20T13:20:09;18.40;89.80
44435;DHT22;30138;20.964;105.830;2023-12-20T13:25:17;18.40;89.80
44435;DHT22;30138;20.964;105.830;2023-12-20T13:30:23;18.40;89.90
44435;DHT22;30138;20.964;105.830;2023-12-20T13:35:29;18.40;89.70
44435;DHT22;30138;20.964;105.830;2023-12-20T13:40:37;18.40;89.80
44435;DHT22;30138;20.964;105.830;2023-12-20T13:45:43;18.30;89.50
44435;DHT22;30138;20.964;105.830;2023-12-20T13:50:49;18.30;89.60
44435;DHT22;30138;20.964;105.830;2023-12-20T13:55:59;18.40;89.30
44435;DHT22;30138;20.964;105.830;2023-12-20T14:01:06;18.30;89.40
44435;DHT22;30138;20.964;105.830;2023-12-20T14:06:11;18.30;89.30
44435;DHT22;30138;20.964;105.830;2023-12-20T14:11:20;18.40;89.20
44435;DHT22;30138;20.964;105.830;2023-12-20T14:16:27;18.40;89.30
44435;DHT22;30138;20.964;105.830;2023-12-20T14:21:33;18.40;89.20
44435;DHT22;30138;20.964;105.830;2023-12-20T14:26:41;18.40;89.20
44435;DHT22;30138;20.964;105.830;2023-12-20T14:31:47;18.40;89.20
44435;DHT22;30138;20.964;105.830;2023-12-20T14:36:59;18.40;89.20
44435;DHT22;30138;20.964;105.830;2023-12-20T14:42:06;18.30;88.90
44435;DHT22;30138;20.964;105.830;2023-12-20T14:47:15;18.30;88.90
44435;DHT22;30138;20.964;105.830;2023-12-20T14:52:24;18.40;89.70
44435;DHT22;30138;20.964;105.830;2023-12-20T14:57:32;18.40;90.10
44435;DHT22;30138;20.964;105.830;2023-12-20T15:02:38;18.40;90.20
44435;DHT22;30138;20.964;105.830;2023-12-20T15:07:43;18.40;90.10
44435;DHT22;30138;20.964;105.830;2023-12-20T15:12:53;18.40;90.10
44435;DHT22;30138;20.964;105.830;2023-12-20T15:17:59;18.40;90.20
44435;DHT22;30138;20.964;105.830;2023-12-20T15:23:06;18.40;90.20
44435;DHT22;30138;20.964;105.830;2023-12-20T15:28:13;18.40;90.20
44435;DHT22;30138;20.964;105.830;2023-12-20T15:33:19;18.40;90.10
44435;DHT22;30138;20.964;105.830;2023-12-20T15:38:25;18.40;90.00
44435;DHT22;30138;20.964;105.830;2023-12-20T15:43:33;18.30;89.30
44435;DHT22;30138;20.964;105.830;2023-12-20T15:48:41;18.40;89.00
44435;DHT22;30138;20.964;105.830;2023-12-20T15:53:46;18.40;88.70
44435;DHT22;30138;20.964;105.830;2023-12-20T15:58:54;18.40;88.60
44435;DHT22;30138;20.964;105.830;2023-12-20T16:04:01;18.30;88.30
44435;DHT22;30138;20.964;105.830;2023-12-20T16:09:08;18.30;88.00
44435;DHT22;30138;20.964;105.830;2023-12-20T16:14:17;18.30;87.80
44435;DHT22;30138;20.964;105.830;2023-12-20T16:19:23;18.30;87.60
44435;DHT22;30138;20.964;105.830;2023-12-20T16:24:30;18.30;87.40
44435;DHT22;30138;20.964;105.830;2023-12-20T16:29:41;18.30;87.30
44435;DHT22;30138;20.964;105.830;2023-12-20T16:34:48;18.30;87.00
44435;DHT22;30138;20.964;105.830;2023-12-20T16:39:55;18.30;86.80
44435;DHT22;30138;20.964;105.830;2023-12-20T16:45:03;18.30;86.70
44435;DHT22;30138;20.964;105.830;2023-12-20T16:50:12;18.30;86.40
44435;DHT22;30138;20.964;105.830;2023-12-20T16:55:18;18.30;86.40
44435;DHT22;30138;20.964;105.830;2023-12-20T17:00:27;18.30;86.20
44435;DHT22;30138;20.964;105.830;2023-12-20T17:05:34;18.30;86.10
44435;DHT22;30138;20.964;105.830;2023-12-20T17:10:40;18.30;86.20
44435;DHT22;30138;20.964;105.830;2023-12-20T17:15:50;18.20;85.80
44435;DHT22;30138;20.964;105.830;2023-12-20T17:20:56;18.30;86.00
44435;DHT22;30138;20.964;105.830;2023-12-20T17:26:02;18.20;85.80
44435;DHT22;30138;20.964;105.830;2023-12-20T17:31:11;18.20;85.90
44435;DHT22;30138;20.964;105.830;2023-12-20T17:36:17;18.20;86.00
44435;DHT22;30138;20.964;105.830;2023-12-20T17:41:25;18.20;85.80
44435;DHT22;30138;20.964;105.830;2023-12-20T17:46:32;18.20;85.80
44435;DHT22;30138;20.964;105.830;2023-12-20T17:51:38;18.20;85.80
44435;DHT22;30138;20.964;105.830;2023-12-20T17:56:44;18.20;85.70
44435;DHT22;30138;20.964;105.830;2023-12-20T18:01:52;18.20;85.70
44435;DHT22;30138;20.964;105.830;2023-12-20T18:06:58;18.20;85.50
44435;DHT22;30138;20.964;105.830;2023-12-20T18:12:05;18.20;85.50
44435;DHT22;30138;20.964;105.830;2023-12-20T18:17:15;18.20;85.30
44435;DHT22;30138;20.964;105.830;2023-12-20T18:22:20;18.20;85.40
44435;DHT22;30138;20.964;105.830;2023-12-20T18:27:27;18.20;85.40
44435;DHT22;30138;20.964;105.830;2023-12-20T18:32:35;18.10;85.20
44435;DHT22;30138;20.964;105.830;2023-12-20T18:37:41;18.10;85.30
44435;DHT22;30138;20.964;105.830;2023-12-20T18:42:47;18.10;85.00
44435;DHT22;30138;20.964;105.830;2023-12-20T18:47:55;18.10;85.10
44435;DHT22;30138;20.964;105.830;2023-12-20T18:53:02;18.10;85.10
44435;DHT22;30138;20.964;105.830;2023-12-20T18:58:09;18.10;85.00
44435;DHT22;30138;20.964;105.830;2023-12-20T19:03:18;18.10;84.90
44435;DHT22;30138;20.964;105.830;2023-12-20T19:08:24;18.10;84.60
44435;DHT22;30138;20.964;105.830;2023-12-20T19:13:31;18.10;84.60
44435;DHT22;30138;20.964;105.830;2023-12-20T19:18:40;18.10;84.60
44435;DHT22;30138;20.964;105.830;2023-12-20T19:23:47;18.10;84.50
44435;DHT22;30138;20.964;105.830;2023-12-20T19:28:55;18.10;84.60
44435;DHT22;30138;20.964;105.830;2023-12-20T19:34:04;18.00;84.30
44435;DHT22;30138;20.964;105.830;2023-12-20T19:39:11;18.00;84.10
44435;DHT22;30138;20.964;105.830;2023-12-20T19:44:17;18.00;83.80
44435;DHT22;30138;20.964;105.830;2023-12-20T19:49:26;18.00;83.90
44435;DHT22;30138;20.964;105.830;2023-12-20T19:54:33;18.00;83.80
44435;DHT22;30138;20.964;105.830;2023-12-20T19:59:39;18.00;83.70
44435;DHT22;30138;20.964;105.830;2023-12-20T20:04:48;18.00;83.60
44435;DHT22;30138;20.964;105.830;2023-12-20T20:09:55;18.00;83.30
44435;DHT22;30138;20.964;105.830;2023-12-20T20:15:01;18.00;83.00
44435;DHT22;30138;20.964;105.830;2023-12-20T20:20:10;18.00;82.90
44435;DHT22;30138;20.964;105.830;2023-12-20T20:25:17;18.00;82.80
44435;DHT22;30138;20.964;105.830;2023-12-20T20:30:23;17.90;82.60
44435;DHT22;30138;20.964;105.830;2023-12-20T20:35:31;17.90;82.60
44435;DHT22;30138;20.964;105.830;2023-12-20T20:40:37;17.90;82.40
44435;DHT22;30138;20.964;105.830;2023-12-20T20:45:43;17.90;82.50
44435;DHT22;30138;20.964;105.830;2023-12-20T20:50:53;17.90;82.50
44435;DHT22;30138;20.964;105.830;2023-12-20T20:56:01;17.90;82.50
44435;DHT22;30138;20.964;105.830;2023-12-20T21:01:08;17.90;82.70
44435;DHT22;30138;20.964;105.830;2023-12-20T21:06:16;17.90;82.50
44435;DHT22;30138;20.964;105.830;2023-12-20T21:11:24;17.90;82.70
44435;DHT22;30138;20.964;105.830;2023-12-20T21:16:30;17.90;82.60
44435;DHT22;30138;20.964;105.830;2023-12-20T21:21:39;17.90;82.50
44435;DHT22;30138;20.964;105.830;2023-12-20T21:26:46;17.90;82.40
44435;DHT22;30138;20.964;105.830;2023-12-20T21:31:52;17.90;82.30
44435;DHT22;30138;20.964;105.830;2023-12-20T21:37:00;17.90;82.00
44435;DHT22;30138;20.964;105.830;2023-12-20T21:42:06;17.90;81.90
44435;DHT22;30138;20.964;105.830;2023-12-20T21:47:13;17.80;81.00
44435;DHT22;30138;20.964;105.830;2023-12-20T21:52:23;17.80;81.60
44435;DHT22;30138;20.964;105.830;2023-12-20T21:57:29;17.80;81.70
44435;DHT22;30138;20.964;105.830;2023-12-20T22:02:35;17.80;81.90
44435;DHT22;30138;20.964;105.830;2023-12-20T22:07:44;17.80;81.80
44435;DHT22;30138;20.964;105.830;2023-12-20T22:12:51;17.80;81.70
44435;DHT22;30138;20.964;105.830;2023-12-20T22:17:58;17.80;81.70
44435;DHT22;30138;20.964;105.830;2023-12-20T22:23:06;17.80;81.70
44435;DHT22;30138;20.964;105.830;2023-12-20T22:28:13;17.80;81.70
44435;DHT22;30138;20.964;105.830;2023-12-20T22:33:19;17.80;81.70
44435;DHT22;30138;20.964;105.830;2023-12-20T22:38:27;17.80;81.40
44435;DHT22;30138;20.964;105.830;2023-12-20T22:43:35;17.80;81.40
44435;DHT22;30138;20.964;105.830;2023-12-20T22:48:42;17.80;81.30
44435;DHT22;30138;20.964;105.830;2023-12-20T22:53:53;17.80;81.40
44435;DHT22;30138;20.964;105.830;2023-12-20T22:58:59;17.70;81.40
44435;DHT22;30138;20.964;105.830;2023-12-20T23:04:06;17.70;81.10
44435;DHT22;30138;20.964;105.830;2023-12-20T23:09:14;17.70;80.90
44435;DHT22;30138;20.964;105.830;2023-12-20T23:14:20;17.70;80.80
44435;DHT22;30138;20.964;105.830;2023-12-20T23:19:27;17.70;80.70
44435;DHT22;30138;20.964;105.830;2023-12-20T23:24:35;17.70;80.70
44435;DHT22;30138;20.964;105.830;2023-12-20T23:29:41;17.70;80.50
44435;DHT22;30138;20.964;105.830;2023-12-20T23:34:47;17.70;80.30
44435;DHT22;30138;20.964;105.830;2023-12-20T23:39:56;17.70;80.40
44435;DHT22;30138;20.964;105.830;2023-12-20T23:45:03;17.70;80.40
44435;DHT22;30138;20.964;105.830;2023-12-20T23:50:10;17.70;80.10
44435;DHT22;30138;20.964;105.830;2023-12-20T23:55:19;17.60;79.90
